Time;durP1;ratioP1;P1;durP2;ratioP2;P2;SDS_P1;SDS_P2;PMS_P1;PMS_P2;Temp;Humidity;BMP_temperature;BMP_pressure;BME280_temperature;BME280_humidity;BME280_pressure;Samples;Min_cycle;Max_cycle;Signal;HPM_P1;HPM_P2
2021/10/16 00:02:21;;;;;;;0.10;0.10;;;9.20;99.90;;;;;;5061555;28;20483;-68
2021/10/16 00:04:46;;;;;;;0.15;0.15;;;9.10;99.90;;;;;;5065777;28;20028;-67
2021/10/16 00:07:12;;;;;;;0.10;0.10;;;9.10;99.90;;;;;;5059792;28;20021;-67
2021/10/16 00:09:37;;;;;;;0.03;0.03;;;9.10;99.90;;;;;;5068596;28;20505;-68
2021/10/16 00:12:03;;;;;;;0.00;0.00;;;9.10;99.90;;;;;;5069872;28;20029;-67
2021/10/16 00:14:29;;;;;;;0.32;0.32;;;9.10;99.90;;;;;;5067733;28;20025;-68
2021/10/16 00:16:54;;;;;;;11.70;0.38;;;9.00;99.90;;;;;;5061243;28;20469;-67
2021/10/16 00:19:20;;;;;;;0.00;0.00;;;9.00;99.90;;;;;;5068753;28;20090;-67
2021/10/16 00:21:46;;;;;;;8.85;0.55;;;9.00;99.90;;;;;;5060082;28;20040;-68
2021/10/16 00:24:11;;;;;;;0.30;0.25;;;9.00;99.90;;;;;;5062135;28;20032;-67
2021/10/16 00:26:37;;;;;;;0.03;0.03;;;8.90;99.90;;;;;;5058729;28;20024;-67
2021/10/16 00:29:02;;;;;;;0.00;0.00;;;8.90;99.90;;;;;;5059972;28;20036;-68
2021/10/16 00:31:28;;;;;;;64.55;1.50;;;8.90;99.90;;;;;;5057355;28;20056;-68
2021/10/16 00:33:54;;;;;;;0.65;0.52;;;8.90;99.90;;;;;;5075633;28;20548;-68
2021/10/16 00:36:19;;;;;;;0.00;0.00;;;8.90;99.90;;;;;;5067702;28;20025;-68
2021/10/16 00:38:44;;;;;;;0.20;0.20;;;8.80;99.90;;;;;;5067661;28;20086;-68
2021/10/16 00:41:12;;;;;;;0.00;0.00;;;8.80;99.90;;;;;;5046519;28;20443;-68
2021/10/16 00:43:38;;;;;;;0.00;0.00;;;8.80;99.90;;;;;;5061496;28;20437;-68
2021/10/16 00:46:03;;;;;;;0.50;0.50;;;8.80;99.90;;;;;;5057207;28;20162;-68
2021/10/16 00:48:29;;;;;;;0.75;0.75;;;8.80;99.90;;;;;;5067104;28;20028;-68
2021/10/16 00:50:55;;;;;;;1.58;1.30;;;8.80;99.90;;;;;;5064812;28;20052;-67
2021/10/16 00:53:20;;;;;;;0.57;0.57;;;8.70;99.90;;;;;;5066557;28;20033;-67
2021/10/16 00:55:49;;;;;;;0.10;0.08;;;8.70;99.90;;;;;;5062367;28;20075;-67
2021/10/16 00:58:15;;;;;;;0.13;0.13;;;8.70;99.90;;;;;;5057651;28;20032;-68
2021/10/16 01:00:41;;;;;;;11.98;0.65;;;8.70;99.90;;;;;;5068195;28;20029;-68
2021/10/16 01:03:07;;;;;;;3.63;1.95;;;8.70;99.90;;;;;;5056093;28;20445;-68
2021/10/16 01:05:34;;;;;;;0.10;0.10;;;8.70;99.90;;;;;;5068922;28;20024;-68
2021/10/16 01:08:00;;;;;;;0.10;0.10;;;;;;;;;;5067915;28;20056;-68
2021/10/16 01:10:26;;;;;;;0.22;0.22;;;;;;;;;;5067740;28;20044;-68
2021/10/16 01:12:52;;;;;;;0.17;0.17;;;8.70;99.90;;;;;;5056289;28;20025;-68
2021/10/16 01:15:19;;;;;;;37.42;1.35;;;8.70;99.90;;;;;;5059595;28;20025;-68
2021/10/16 01:17:48;;;;;;;0.00;0.00;;;8.70;99.90;;;;;;5067847;28;20034;-67
2021/10/16 01:20:17;;;;;;;0.63;0.32;;;8.60;99.90;;;;;;5064610;28;20029;-67
2021/10/16 01:22:44;;;;;;;0.22;0.22;;;8.60;99.90;;;;;;5055658;28;20106;-67
2021/10/16 01:25:13;;;;;;;0.30;0.30;;;8.60;99.90;;;;;;5061810;28;20056;-68
2021/10/16 01:27:39;;;;;;;0.05;0.05;;;8.60;99.90;;;;;;5064592;28;20055;-68
2021/10/16 01:30:07;;;;;;;10.82;0.85;;;8.60;99.90;;;;;;5067414;28;20037;-68
2021/10/16 01:32:35;;;;;;;0.43;0.43;;;8.60;99.90;;;;;;5066548;28;20548;-68
2021/10/16 01:35:01;;;;;;;0.03;0.03;;;8.60;99.90;;;;;;5063104;28;20471;-67
2021/10/16 01:37:27;;;;;;;6.13;1.55;;;8.50;99.90;;;;;;5061848;28;20448;-67
2021/10/16 01:39:52;;;;;;;0.75;0.65;;;8.60;99.90;;;;;;5060039;28;20024;-68
2021/10/16 01:42:18;;;;;;;0.00;0.00;;;8.50;99.90;;;;;;5065202;28;20036;-68
2021/10/16 01:44:43;;;;;;;0.00;0.00;;;8.50;99.90;;;;;;5056509;28;20028;-67
2021/10/16 01:47:09;;;;;;;0.25;0.10;;;8.50;99.90;;;;;;5058947;28;20585;-67
2021/10/16 01:49:35;;;;;;;0.10;0.10;;;8.40;99.90;;;;;;5067252;28;20036;-66
2021/10/16 01:52:00;;;;;;;0.30;0.30;;;8.50;99.90;;;;;;5060163;28;20033;-69
2021/10/16 01:54:26;;;;;;;0.95;0.60;;;8.40;99.90;;;;;;5061800;28;20027;-67
2021/10/16 01:56:51;;;;;;;1.55;0.68;;;8.40;99.90;;;;;;5061078;28;20118;-67
2021/10/16 01:59:20;;;;;;;0.10;0.10;;;8.50;99.90;;;;;;5063897;28;20051;-67
2021/10/16 02:01:46;;;;;;;0.20;0.20;;;8.50;99.90;;;;;;5067724;28;20039;-67
2021/10/16 02:04:13;;;;;;;0.22;0.22;;;8.40;99.90;;;;;;5059007;28;20028;-67
2021/10/16 02:06:40;;;;;;;4.90;0.45;;;8.40;99.90;;;;;;5065201;28;20028;-68
2021/10/16 02:09:06;;;;;;;0.10;0.10;;;8.50;99.90;;;;;;5054019;28;20035;-68
2021/10/16 02:11:32;;;;;;;0.40;0.40;;;8.50;99.90;;;;;;5062369;28;20024;-67
2021/10/16 02:13:59;;;;;;;0.00;0.00;;;8.50;99.90;;;;;;5050504;28;20426;-67
2021/10/16 02:16:25;;;;;;;0.00;0.00;;;8.40;99.90;;;;;;5064743;28;20032;-67
2021/10/16 02:18:51;;;;;;;0.20;0.20;;;8.40;99.90;;;;;;5058266;28;20040;-68
2021/10/16 02:21:17;;;;;;;0.00;0.00;;;8.40;99.90;;;;;;5065770;28;20450;-68
2021/10/16 02:23:42;;;;;;;0.10;0.10;;;8.40;99.90;;;;;;5062501;28;20326;-68
2021/10/16 02:26:08;;;;;;;0.10;0.10;;;8.40;99.90;;;;;;5064436;28;20319;-68
2021/10/16 02:28:33;;;;;;;0.03;0.03;;;8.40;99.90;;;;;;5066427;28;20036;-67
2021/10/16 02:30:59;;;;;;;0.00;0.00;;;8.30;99.90;;;;;;5056848;28;20029;-67
2021/10/16 02:33:25;;;;;;;0.35;0.35;;;8.30;99.90;;;;;;5057682;28;20032;-68
2021/10/16 02:35:50;;;;;;;0.30;0.30;;;8.30;99.90;;;;;;5060509;28;20349;-68
2021/10/16 02:38:16;;;;;;;0.10;0.10;;;8.30;99.90;;;;;;5055165;28;20020;-67
2021/10/16 02:40:41;;;;;;;0.22;0.22;;;8.30;99.90;;;;;;5057630;28;20033;-67
2021/10/16 02:43:07;;;;;;;0.00;0.00;;;8.30;99.90;;;;;;5049845;28;20602;-67
2021/10/16 02:45:33;;;;;;;0.47;0.47;;;8.20;99.90;;;;;;5065477;28;20413;-68
2021/10/16 02:47:58;;;;;;;0.47;0.47;;;8.20;99.90;;;;;;5065480;28;20028;-67
2021/10/16 02:50:24;;;;;;;0.80;0.80;;;8.20;99.90;;;;;;5059607;28;20033;-67
2021/10/16 02:52:49;;;;;;;0.10;0.10;;;8.20;99.90;;;;;;5059127;28;20395;-67
2021/10/16 02:55:16;;;;;;;2.92;0.90;;;8.20;99.90;;;;;;5061840;28;20032;-67
2021/10/16 02:57:42;;;;;;;0.10;0.10;;;8.20;99.90;;;;;;5064036;28;20339;-68
2021/10/16 03:00:08;;;;;;;0.00;0.00;;;8.20;99.90;;;;;;5065328;28;20488;-68
2021/10/16 03:02:34;;;;;;;0.00;0.00;;;8.20;99.90;;;;;;5057208;28;20115;-67
2021/10/16 03:05:00;;;;;;;0.10;0.10;;;8.30;99.90;;;;;;5063986;28;20115;-67
2021/10/16 03:07:25;;;;;;;0.15;0.15;;;8.30;99.90;;;;;;5056008;28;20579;-68
2021/10/16 03:09:51;;;;;;;0.28;0.28;;;8.20;99.90;;;;;;5062557;28;20050;-67
2021/10/16 03:12:16;;;;;;;0.00;0.00;;;8.30;99.90;;;;;;5062278;28;20058;-67
2021/10/16 03:14:42;;;;;;;1.65;0.47;;;8.40;99.90;;;;;;5064990;28;20538;-68
2021/10/16 03:17:07;;;;;;;0.68;0.68;;;8.40;99.90;;;;;;5065216;28;20040;-68
2021/10/16 03:19:33;;;;;;;0.08;0.08;;;8.40;99.90;;;;;;5061096;28;20509;-68
2021/10/16 03:21:58;;;;;;;0.52;0.40;;;8.40;99.90;;;;;;5061744;28;20020;-67
2021/10/16 03:24:24;;;;;;;0.10;0.10;;;8.40;99.90;;;;;;5067077;28;20248;-67
2021/10/16 03:26:50;;;;;;;0.57;0.57;;;8.50;99.90;;;;;;5069386;28;20381;-68
2021/10/16 03:29:15;;;;;;;1.48;1.10;;;8.50;99.90;;;;;;5066685;28;20024;-67
2021/10/16 03:31:41;;;;;;;0.00;0.00;;;8.50;99.90;;;;;;5051615;28;20568;-67
2021/10/16 03:34:07;;;;;;;0.90;0.90;;;8.50;99.90;;;;;;5059265;28;20071;-67
2021/10/16 03:36:32;;;;;;;3.40;0.45;;;8.50;99.90;;;;;;5068725;28;20025;-67
2021/10/16 03:38:58;;;;;;;0.32;0.32;;;8.60;99.90;;;;;;5065350;28;20025;-67
2021/10/16 03:41:23;;;;;;;0.10;0.10;;;8.60;99.90;;;;;;5068187;28;20487;-68
2021/10/16 03:43:49;;;;;;;0.30;0.30;;;8.60;99.90;;;;;;5069841;28;20039;-68
2021/10/16 03:46:15;;;;;;;0.10;0.10;;;8.60;99.90;;;;;;5063783;28;20395;-68
2021/10/16 03:48:41;;;;;;;0.00;0.00;;;8.70;99.90;;;;;;5068406;28;20335;-67
2021/10/16 03:51:06;;;;;;;0.40;0.40;;;8.70;99.90;;;;;;5058521;28;20078;-67
2021/10/16 03:53:32;;;;;;;0.28;0.22;;;8.70;99.90;;;;;;5063721;28;20024;-68
2021/10/16 03:55:57;;;;;;;0.00;0.00;;;8.70;99.90;;;;;;5063308;28;20515;-68
2021/10/16 03:58:23;;;;;;;0.93;0.77;;;8.70;99.90;;;;;;5060077;28;20025;-67
2021/10/16 04:00:48;;;;;;;0.10;0.10;;;8.70;99.90;;;;;;5054586;28;20020;-68
2021/10/16 04:03:14;;;;;;;3.30;0.28;;;8.70;99.90;;;;;;5067819;28;20036;-67
2021/10/16 04:05:40;;;;;;;0.15;0.15;;;8.80;99.90;;;;;;5069958;28;20071;-68
2021/10/16 04:08:08;;;;;;;0.75;0.68;;;8.70;99.90;;;;;;5058375;28;20489;-67
2021/10/16 04:10:34;;;;;;;0.10;0.10;;;8.70;99.90;;;;;;5060088;28;20036;-67
2021/10/16 04:13:00;;;;;;;0.68;0.68;;;8.80;99.90;;;;;;5052275;28;20033;-67
2021/10/16 04:15:26;;;;;;;0.10;0.10;;;8.80;99.90;;;;;;5068444;28;20153;-68
2021/10/16 04:17:51;;;;;;;0.00;0.00;;;8.80;99.90;;;;;;5065757;28;20048;-67
2021/10/16 04:20:17;;;;;;;0.00;0.00;;;8.80;99.90;;;;;;5067976;28;20025;-67
2021/10/16 04:22:48;;;;;;;0.00;0.00;;;8.80;99.90;;;;;;5068701;28;20045;-68
2021/10/16 04:25:14;;;;;;;1.02;0.32;;;8.90;99.90;;;;;;5064619;28;20052;-67
2021/10/16 04:27:43;;;;;;;1.60;0.70;;;8.90;99.90;;;;;;5057715;28;20052;-68
2021/10/16 04:30:09;;;;;;;0.45;0.15;;;8.90;99.90;;;;;;5059149;28;20023;-68
2021/10/16 04:32:35;;;;;;;0.05;0.05;;;8.90;99.90;;;;;;5056091;28;20025;-67
2021/10/16 04:35:02;;;;;;;0.00;0.00;;;8.90;99.90;;;;;;5066672;28;20031;-67
2021/10/16 04:37:28;;;;;;;0.10;0.10;;;8.90;99.90;;;;;;5063450;28;20020;-68
2021/10/16 04:39:53;;;;;;;0.88;0.80;;;8.90;99.90;;;;;;5064410;28;20035;-68
2021/10/16 04:42:19;;;;;;;0.10;0.10;;;8.90;99.90;;;;;;5062581;28;20031;-67
2021/10/16 04:44:44;;;;;;;0.28;0.28;;;8.90;99.90;;;;;;5067306;28;20437;-67
2021/10/16 04:47:10;;;;;;;0.82;0.80;;;8.90;99.90;;;;;;5064224;28;20024;-68
2021/10/16 04:49:36;;;;;;;1.17;0.30;;;8.90;99.90;;;;;;5063242;28;20013;-68
2021/10/16 04:52:04;;;;;;;0.35;0.35;;;8.90;99.90;;;;;;5064804;28;20029;-68
2021/10/16 04:54:29;;;;;;;0.00;0.00;;;8.90;99.90;;;;;;5055065;28;20381;-68
2021/10/16 04:56:55;;;;;;;0.85;0.85;;;8.90;99.90;;;;;;5048988;28;20079;-68
2021/10/16 04:59:20;;;;;;;6.88;1.50;;;9.00;99.90;;;;;;5052695;28;20029;-68
2021/10/16 05:01:46;;;;;;;0.20;0.20;;;8.90;99.90;;;;;;5066987;28;20031;-67
2021/10/16 05:04:11;;;;;;;0.20;0.20;;;8.90;99.90;;;;;;5067509;28;20403;-67
2021/10/16 05:06:37;;;;;;;1.67;1.20;;;8.90;99.90;;;;;;5062691;28;20106;-68
2021/10/16 05:09:02;;;;;;;0.00;0.00;;;8.90;99.90;;;;;;5055996;28;20040;-69
2021/10/16 05:11:28;;;;;;;0.00;0.00;;;8.80;99.90;;;;;;5065944;28;20043;-67
2021/10/16 05:13:53;;;;;;;2.55;0.60;;;8.80;99.90;;;;;;5059598;28;20032;-67
2021/10/16 05:16:19;;;;;;;4.38;0.47;;;8.90;99.90;;;;;;5060318;28;20444;-67
2021/10/16 05:18:44;;;;;;;5.03;1.23;;;8.90;99.90;;;;;;5057896;28;20016;-68
2021/10/16 05:21:09;;;;;;;1.17;1.08;;;8.90;99.90;;;;;;5053938;28;20024;-68
2021/10/16 05:23:35;;;;;;;1.45;1.08;;;8.90;99.90;;;;;;5065675;28;20503;-68
2021/10/16 05:26:01;;;;;;;0.05;0.05;;;8.90;99.90;;;;;;5063267;28;20021;-68
2021/10/16 05:28:27;;;;;;;0.00;0.00;;;8.90;99.90;;;;;;5053891;28;20434;-67
2021/10/16 05:30:53;;;;;;;0.03;0.03;;;8.90;99.90;;;;;;5062048;28;20035;-67
2021/10/16 05:33:18;;;;;;;2.25;0.85;;;8.90;99.90;;;;;;5051571;28;20049;-66
2021/10/16 05:35:44;;;;;;;0.10;0.10;;;8.90;99.90;;;;;;5054328;28;20422;-66
2021/10/16 05:38:11;;;;;;;0.43;0.25;;;8.90;99.90;;;;;;5058426;28;20103;-68
2021/10/16 05:40:37;;;;;;;0.00;0.00;;;8.90;99.90;;;;;;5066802;28;20036;-68
2021/10/16 05:43:02;;;;;;;0.57;0.35;;;8.90;99.90;;;;;;5057377;28;20029;-67
2021/10/16 05:45:28;;;;;;;0.00;0.00;;;8.90;99.90;;;;;;5063848;28;20445;-68
2021/10/16 05:47:53;;;;;;;0.00;0.00;;;8.90;99.90;;;;;;5057319;28;20255;-69
2021/10/16 05:50:19;;;;;;;0.10;0.10;;;9.00;99.90;;;;;;5048484;28;20025;-68
2021/10/16 05:52:44;;;;;;;0.30;0.30;;;8.90;99.90;;;;;;5067537;28;20024;-68
2021/10/16 05:55:10;;;;;;;0.47;0.47;;;8.90;99.90;;;;;;5065115;28;20035;-67
2021/10/16 05:57:35;;;;;;;0.30;0.30;;;9.00;99.90;;;;;;5060786;28;20016;-67
2021/10/16 06:00:02;;;;;;;7.28;1.38;;;9.00;99.90;;;;;;5056311;28;20397;-68
2021/10/16 06:02:27;;;;;;;0.00;0.00;;;9.00;99.90;;;;;;5065351;28;20052;-68
2021/10/16 06:04:52;;;;;;;0.60;0.55;;;9.00;99.90;;;;;;5061403;28;20479;-67
2021/10/16 06:07:18;;;;;;;0.45;0.45;;;9.00;99.90;;;;;;5060204;28;20024;-68
2021/10/16 06:09:43;;;;;;;0.20;0.20;;;9.00;99.90;;;;;;5061606;28;20087;-67
2021/10/16 06:12:09;;;;;;;0.10;0.10;;;9.00;99.90;;;;;;5054614;28;20399;-68
2021/10/16 06:14:34;;;;;;;1.05;0.73;;;9.00;99.90;;;;;;5060616;28;20029;-68
2021/10/16 06:17:00;;;;;;;7.95;1.33;;;9.00;99.90;;;;;;5059892;28;20028;-69
2021/10/16 06:19:25;;;;;;;0.25;0.25;;;9.00;99.90;;;;;;5062710;28;20495;-68
2021/10/16 06:21:51;;;;;;;0.20;0.20;;;9.00;99.90;;;;;;5062025;28;20033;-69
2021/10/16 06:24:17;;;;;;;0.00;0.00;;;9.00;99.90;;;;;;5061789;28;20036;-68
2021/10/16 06:26:42;;;;;;;1.02;0.20;;;9.00;99.90;;;;;;5064317;28;20031;-67
2021/10/16 06:29:07;;;;;;;0.15;0.15;;;9.00;99.90;;;;;;5062329;28;20221;-68
2021/10/16 06:31:33;;;;;;;0.13;0.13;;;9.00;99.90;;;;;;5052843;28;20032;-68
2021/10/16 06:33:58;;;;;;;16.20;1.95;;;9.00;99.90;;;;;;5058258;28;20038;-68
2021/10/16 06:36:24;;;;;;;0.25;0.25;;;9.00;99.90;;;;;;5054625;28;20037;-68
2021/10/16 06:38:49;;;;;;;0.32;0.32;;;9.00;99.90;;;;;;5063244;28;20023;-67
2021/10/16 06:41:15;;;;;;;0.00;0.00;;;9.00;99.90;;;;;;5056735;28;20024;-68
2021/10/16 06:43:40;;;;;;;1.77;1.15;;;9.00;99.90;;;;;;5057250;28;20287;-68
2021/10/16 06:46:06;;;;;;;0.20;0.20;;;9.00;99.90;;;;;;5058750;28;20025;-68
2021/10/16 06:48:31;;;;;;;0.00;0.00;;;9.00;99.90;;;;;;5062555;28;20127;-68
2021/10/16 06:50:57;;;;;;;0.75;0.75;;;9.00;99.90;;;;;;5054508;28;20073;-68
2021/10/16 06:53:22;;;;;;;0.75;0.75;;;9.00;99.90;;;;;;5052536;28;20379;-68
2021/10/16 06:55:48;;;;;;;0.70;0.47;;;9.00;99.90;;;;;;5061666;28;20032;-68
2021/10/16 06:58:13;;;;;;;3.47;0.77;;;9.00;99.90;;;;;;5068049;28;20056;-69
2021/10/16 07:00:39;;;;;;;0.08;0.08;;;9.10;99.90;;;;;;5070131;28;20526;-69
2021/10/16 07:03:07;;;;;;;1.00;1.00;;;9.10;99.90;;;;;;5067463;28;20045;-69
2021/10/16 07:05:33;;;;;;;0.30;0.30;;;9.10;99.90;;;;;;5058422;28;20078;-69
2021/10/16 07:07:59;;;;;;;0.00;0.00;;;9.20;99.90;;;;;;5059992;28;20028;-69
2021/10/16 07:10:24;;;;;;;16.63;0.90;;;9.30;99.90;;;;;;5058439;28;20024;-69
2021/10/16 07:12:50;;;;;;;0.15;0.15;;;9.30;99.90;;;;;;5061947;28;20112;-68
2021/10/16 07:15:15;;;;;;;0.28;0.28;;;9.40;99.90;;;;;;5056605;28;20044;-69
2021/10/16 07:17:41;;;;;;;0.10;0.10;;;9.50;99.90;;;;;;5056644;28;20056;-69
2021/10/16 07:20:07;;;;;;;2.20;1.45;;;9.50;99.90;;;;;;5062481;28;20039;-68
2021/10/16 07:22:32;;;;;;;0.25;0.20;;;9.50;99.90;;;;;;5065499;28;20053;-69
2021/10/16 07:24:58;;;;;;;0.20;0.20;;;9.60;99.90;;;;;;5064400;28;20032;-69
2021/10/16 07:27:23;;;;;;;0.35;0.35;;;9.60;99.90;;;;;;5066819;28;20356;-68
2021/10/16 07:29:49;;;;;;;0.60;0.60;;;9.60;99.90;;;;;;5054771;28;20025;-69
2021/10/16 07:32:15;;;;;;;0.38;0.38;;;9.70;99.90;;;;;;5071198;28;20495;-69
2021/10/16 07:34:41;;;;;;;0.35;0.20;;;9.80;99.90;;;;;;5056549;28;20025;-69
2021/10/16 07:37:43;;;;;;;1.45;0.98;;;9.90;99.90;;;;;;5067229;28;20035;-68
2021/10/16 07:40:09;;;;;;;0.00;0.00;;;10.00;99.90;;;;;;5066980;28;20380;-69
2021/10/16 07:42:35;;;;;;;1.77;1.38;;;10.20;99.90;;;;;;5068182;28;20075;-69
2021/10/16 07:45:00;;;;;;;0.55;0.52;;;10.20;99.90;;;;;;5069130;28;20503;-69
2021/10/16 07:47:27;;;;;;;0.03;0.03;;;10.20;99.90;;;;;;5068853;28;20322;-69
2021/10/16 07:49:54;;;;;;;0.00;0.00;;;10.20;99.90;;;;;;5068421;28;20475;-69
2021/10/16 07:52:19;;;;;;;0.00;0.00;;;10.20;99.90;;;;;;5069263;28;20024;-69
2021/10/16 07:54:44;;;;;;;1.60;1.02;;;10.20;99.90;;;;;;5068831;28;20044;-69
2021/10/16 07:57:10;;;;;;;0.17;0.17;;;10.20;99.90;;;;;;5068929;28;20187;-69
2021/10/16 07:59:36;;;;;;;0.25;0.25;;;10.20;99.90;;;;;;5069037;28;20426;-68
2021/10/16 08:02:01;;;;;;;2.67;0.38;;;10.10;99.90;;;;;;5062333;28;20425;-69
2021/10/16 08:04:27;;;;;;;2.42;1.60;;;10.10;99.90;;;;;;5068826;28;20110;-69
2021/10/16 08:06:52;;;;;;;0.38;0.38;;;10.00;99.90;;;;;;5069258;28;20390;-69
2021/10/16 08:09:18;;;;;;;0.10;0.10;;;10.00;99.90;;;;;;5068621;28;20017;-69
2021/10/16 08:11:43;;;;;;;0.17;0.17;;;10.00;99.90;;;;;;5068168;28;20395;-69
2021/10/16 08:14:09;;;;;;;0.00;0.00;;;10.10;99.90;;;;;;5068915;28;20043;-69
2021/10/16 08:16:34;;;;;;;38.38;0.98;;;10.20;99.90;;;;;;5068888;28;20049;-69
2021/10/16 08:19:00;;;;;;;10.93;1.25;;;10.40;99.90;;;;;;5056670;28;20027;-69
2021/10/16 08:21:25;;;;;;;9.73;0.55;;;10.50;99.90;;;;;;5068727;28;20086;-69
2021/10/16 08:23:51;;;;;;;0.30;0.30;;;10.70;99.90;;;;;;5068470;28;20084;-68
2021/10/16 08:26:16;;;;;;;0.28;0.17;;;10.80;99.90;;;;;;5068556;28;20016;-68
2021/10/16 08:28:42;;;;;;;2.20;1.08;;;10.80;99.90;;;;;;5061043;28;20587;-69
2021/10/16 08:31:07;;;;;;;0.25;0.25;;;10.90;99.90;;;;;;5068551;28;20028;-68
2021/10/16 08:33:36;;;;;;;0.05;0.05;;;10.90;99.90;;;;;;5067134;28;20028;-68
2021/10/16 08:36:02;;;;;;;0.05;0.05;;;10.90;99.90;;;;;;5068604;28;20012;-69
2021/10/16 08:38:28;;;;;;;0.25;0.20;;;11.00;99.90;;;;;;5067786;28;20074;-68
2021/10/16 08:40:53;;;;;;;0.00;0.00;;;11.00;99.90;;;;;;5067935;28;20055;-69
2021/10/16 08:43:19;;;;;;;7.03;0.38;;;11.10;99.90;;;;;;5056854;28;20033;-68
2021/10/16 08:45:45;;;;;;;0.05;0.05;;;11.10;99.90;;;;;;5068061;28;20032;-69
2021/10/16 08:48:13;;;;;;;1.75;0.93;;;11.20;99.90;;;;;;5068003;28;20070;-69
2021/10/16 08:50:39;;;;;;;0.70;0.70;;;11.30;99.90;;;;;;5067561;28;20444;-69
2021/10/16 08:53:04;;;;;;;0.00;0.00;;;11.30;99.90;;;;;;5063543;28;20032;-69
2021/10/16 08:55:30;;;;;;;0.05;0.05;;;11.40;99.90;;;;;;5067569;28;20150;-69
2021/10/16 08:57:56;;;;;;;0.73;0.73;;;11.40;99.90;;;;;;5067557;28;20694;-69
2021/10/16 09:00:42;;;;;;;1.30;1.08;;;11.60;99.90;;;;;;5068125;28;20394;-68
2021/10/16 09:03:24;;;;;;;0.13;0.13;;;11.60;99.90;;;;;;5067300;28;20487;-69
2021/10/16 09:06:11;;;;;;;0.00;0.00;;;11.70;99.90;;;;;;5068389;28;20036;-69
2021/10/16 09:08:39;;;;;;;0.63;0.63;;;11.80;99.90;;;;;;5067460;28;20368;-69
2021/10/16 09:11:53;;;;;;;0.25;0.25;;;11.70;99.90;;;;;;5067920;28;20111;-68
2021/10/16 09:14:22;;;;;;;0.00;0.00;;;11.80;99.90;;;;;;4955691;28;20032;-69
2021/10/16 09:16:50;;;;;;;0.15;0.15;;;11.90;99.90;;;;;;5049699;28;20029;-69
2021/10/16 09:19:21;;;;;;;0.03;0.03;;;12.00;99.90;;;;;;5067169;28;20036;-69
2021/10/16 09:21:56;;;;;;;0.20;0.20;;;12.00;99.90;;;;;;5067436;28;20506;-69
2021/10/16 09:24:29;;;;;;;0.82;0.38;;;12.00;99.90;;;;;;5061876;28;20123;-69
2021/10/16 09:27:07;;;;;;;0.15;0.15;;;12.10;99.90;;;;;;5066204;28;20036;-69
2021/10/16 09:29:35;;;;;;;0.00;0.00;;;12.20;99.90;;;;;;5067222;28;20013;-69
2021/10/16 09:32:11;;;;;;;0.03;0.03;;;12.20;99.90;;;;;;5066855;28;20020;-68
2021/10/16 09:34:40;;;;;;;0.30;0.30;;;12.30;99.90;;;;;;5067029;28;20025;-69
2021/10/16 09:37:10;;;;;;;1.58;0.60;;;12.50;99.90;;;;;;5066012;28;20050;-69
2021/10/16 09:39:39;;;;;;;0.40;0.40;;;12.70;99.90;;;;;;5067175;28;20063;-69
2021/10/16 09:42:06;;;;;;;1.45;0.63;;;12.80;99.90;;;;;;5067174;28;20029;-69
2021/10/16 09:44:36;;;;;;;0.10;0.10;;;12.90;99.90;;;;;;5066559;28;20031;-69
2021/10/16 09:47:11;;;;;;;0.50;0.50;;;12.90;99.90;;;;;;5066330;28;20059;-68
2021/10/16 09:49:43;;;;;;;0.08;0.08;;;12.90;99.90;;;;;;5055341;28;20060;-69
2021/10/16 09:52:11;;;;;;;16.20;0.77;;;12.90;99.90;;;;;;5056301;28;20032;-69
2021/10/16 09:54:38;;;;;;;0.10;0.10;;;12.90;99.90;;;;;;5066770;28;20109;-69
2021/10/16 09:57:14;;;;;;;0.20;0.20;;;12.80;99.90;;;;;;5055111;28;20024;-69
2021/10/16 09:59:41;;;;;;;0.00;0.00;;;12.90;99.90;;;;;;5066421;28;20384;-69
2021/10/16 10:02:08;;;;;;;0.05;0.05;;;12.90;99.60;;;;;;5066100;28;20033;-69
2021/10/16 10:04:39;;;;;;;0.30;0.30;;;13.00;99.60;;;;;;5065112;28;20475;-69
2021/10/16 10:07:05;;;;;;;0.08;0.08;;;13.10;99.80;;;;;;5066455;28;20097;-69
2021/10/16 10:09:32;;;;;;;17.35;0.50;;;13.10;99.90;;;;;;5065458;28;20577;-69
2021/10/16 10:11:59;;;;;;;0.10;0.10;;;13.20;99.90;;;;;;5065887;28;20220;-69
2021/10/16 10:14:25;;;;;;;0.20;0.20;;;13.30;98.90;;;;;;5065909;28;20040;-69
2021/10/16 10:16:54;;;;;;;0.10;0.10;;;13.40;97.90;;;;;;5065977;28;20028;-69
2021/10/16 10:19:21;;;;;;;0.00;0.00;;;13.50;97.70;;;;;;5066823;28;20147;-69
2021/10/16 10:21:47;;;;;;;0.65;0.57;;;13.60;97.00;;;;;;5066373;28;20554;-69
2021/10/16 10:24:13;;;;;;;0.00;0.00;;;13.70;96.80;;;;;;5066043;28;20058;-69
2021/10/16 10:26:41;;;;;;;1.02;0.40;;;13.70;95.80;;;;;;5065218;28;20025;-69
2021/10/16 10:29:20;;;;;;;0.10;0.10;;;13.70;95.90;;;;;;5057608;28;20479;-67
2021/10/16 10:31:53;;;;;;;2.08;0.57;;;13.80;96.20;;;;;;5065705;28;20543;-69
2021/10/16 10:34:30;;;;;;;0.00;0.00;;;13.90;95.50;;;;;;5066678;28;20398;-69
2021/10/16 10:37:01;;;;;;;0.00;0.00;;;13.90;95.10;;;;;;5066136;28;20587;-69
2021/10/16 10:39:33;;;;;;;0.03;0.03;;;13.80;95.00;;;;;;5055551;28;20352;-69
2021/10/16 10:42:03;;;;;;;0.00;0.00;;;13.80;95.20;;;;;;5065990;28;20552;-69
2021/10/16 10:44:43;;;;;;;0.00;0.00;;;13.80;95.30;;;;;;5065834;28;20040;-69
2021/10/16 10:47:23;;;;;;;0.00;0.00;;;13.80;93.70;;;;;;5065939;28;20036;-68
2021/10/16 10:49:53;;;;;;;0.10;0.10;;;13.80;92.80;;;;;;5062406;28;20097;-69
2021/10/16 10:52:22;;;;;;;1.45;0.80;;;13.70;92.00;;;;;;5066480;28;20060;-69
2021/10/16 10:55:08;;;;;;;0.00;0.00;;;13.70;92.40;;;;;;5066095;28;20043;-68
2021/10/16 10:57:58;;;;;;;0.00;0.00;;;13.80;91.20;;;;;;5066106;28;20020;-69
2021/10/16 11:00:33;;;;;;;0.00;0.00;;;13.80;91.20;;;;;;5059167;28;20071;-69
2021/10/16 11:02:59;;;;;;;0.10;0.10;;;14.10;90.70;;;;;;5062160;28;20383;-70
2021/10/16 11:05:34;;;;;;;1.00;0.35;;;14.10;90.80;;;;;;5065914;28;20033;-69
2021/10/16 11:08:10;;;;;;;0.10;0.10;;;14.20;91.00;;;;;;5065785;28;20025;-69
2021/10/16 11:10:36;;;;;;;0.10;0.10;;;14.60;89.80;;;;;;5063999;28;20142;-69
2021/10/16 11:13:19;;;;;;;0.40;0.40;;;15.00;87.50;;;;;;5064495;28;20027;-69
2021/10/16 11:15:55;;;;;;;0.43;0.43;;;14.90;85.90;;;;;;5065729;28;20455;-69
2021/10/16 11:18:20;;;;;;;2.40;0.45;;;14.60;85.60;;;;;;5066085;28;20028;-68
2021/10/16 11:20:46;;;;;;;1.35;0.85;;;14.30;86.50;;;;;;5065760;28;20020;-69
2021/10/16 11:23:25;;;;;;;0.55;0.28;;;14.00;88.10;;;;;;5054674;28;20051;-69
2021/10/16 11:25:59;;;;;;;0.10;0.10;;;13.80;87.90;;;;;;5065937;28;20039;-69
2021/10/16 11:28:25;;;;;;;0.00;0.00;;;13.60;88.80;;;;;;5064799;28;20035;-70
2021/10/16 11:30:56;;;;;;;0.25;0.25;;;13.40;90.00;;;;;;5066023;28;20024;-69
2021/10/16 11:33:38;;;;;;;0.13;0.13;;;13.40;90.60;;;;;;5065583;28;20035;-68
2021/10/16 11:36:04;;;;;;;3.25;1.02;;;13.30;90.80;;;;;;5053805;28;20029;-68
2021/10/16 11:38:32;;;;;;;1.27;0.40;;;13.40;90.60;;;;;;5065289;28;20036;-68
2021/10/16 11:40:59;;;;;;;0.00;0.00;;;13.40;90.90;;;;;;5065572;28;20167;-69
2021/10/16 11:43:30;;;;;;;7.45;0.30;;;13.50;90.10;;;;;;5066797;28;20032;-69
2021/10/16 11:45:56;;;;;;;0.00;0.00;;;13.60;90.30;;;;;;5068299;28;20024;-69
2021/10/16 11:48:23;;;;;;;0.13;0.13;;;13.70;88.70;;;;;;5069390;28;20551;-68
2021/10/16 11:50:54;;;;;;;0.25;0.10;;;13.80;89.80;;;;;;5069561;28;20086;-69
2021/10/16 11:53:23;;;;;;;0.15;0.15;;;13.80;89.50;;;;;;5062631;28;20077;-69
2021/10/16 11:55:59;;;;;;;1.95;0.35;;;13.80;88.30;;;;;;5068600;28;20036;-69
2021/10/16 11:58:26;;;;;;;0.15;0.15;;;13.80;89.40;;;;;;5067209;28;20024;-69
2021/10/16 12:00:54;;;;;;;1.33;0.57;;;13.90;89.70;;;;;;5067831;28;20107;-69
2021/10/16 12:03:40;;;;;;;15.13;0.55;;;14.20;88.80;;;;;;5064116;28;20112;-69
2021/10/16 12:06:12;;;;;;;0.20;0.20;;;14.80;86.30;;;;;;5069292;28;20036;-69
2021/10/16 12:09:04;;;;;;;0.03;0.03;;;15.40;84.60;;;;;;5067891;28;20048;-69
2021/10/16 12:11:31;;;;;;;0.00;0.00;;;15.90;82.70;;;;;;5068315;28;20119;-69
2021/10/16 12:13:59;;;;;;;0.05;0.05;;;15.90;76.40;;;;;;5061186;28;20531;-69
2021/10/16 12:16:36;;;;;;;0.35;0.35;;;15.60;76.70;;;;;;5068325;28;20364;-68
2021/10/16 12:19:04;;;;;;;0.22;0.22;;;15.30;77.60;;;;;;5068553;28;20073;-69
2021/10/16 12:21:37;;;;;;;1.17;0.85;;;15.00;79.60;;;;;;5068245;28;20032;-69
2021/10/16 12:24:05;;;;;;;0.00;0.00;;;14.70;81.20;;;;;;5067882;28;20076;-69
2021/10/16 12:26:35;;;;;;;0.30;0.30;;;14.50;83.50;;;;;;5068139;28;20479;-69
2021/10/16 12:29:06;;;;;;;0.15;0.15;;;14.30;84.20;;;;;;5067486;28;20081;-69
2021/10/16 12:31:49;;;;;;;0.00;0.00;;;14.10;85.40;;;;;;5049223;28;20028;-69
2021/10/16 12:34:22;;;;;;;0.00;0.00;;;14.00;86.10;;;;;;5068035;28;20562;-68
2021/10/16 12:36:55;;;;;;;0.05;0.05;;;13.90;87.60;;;;;;5068421;28;20554;-68
2021/10/16 12:39:37;;;;;;;0.00;0.00;;;13.80;88.40;;;;;;5068677;28;20029;-69
2021/10/16 12:42:11;;;;;;;0.13;0.13;;;13.70;89.10;;;;;;5058305;28;20021;-69
2021/10/16 12:44:39;;;;;;;0.10;0.10;;;13.80;88.20;;;;;;5067960;28;20036;-69
2021/10/16 12:47:10;;;;;;;0.17;0.17;;;13.70;87.50;;;;;;5068411;28;20116;-69
2021/10/16 12:49:41;;;;;;;1.35;0.52;;;13.80;87.20;;;;;;5068301;28;20386;-69
2021/10/16 12:52:27;;;;;;;;;;;13.90;87.40;;;;;;5064752;28;20033;-69
2021/10/16 12:54:54;;;;;;;3.10;0.55;;;13.90;87.10;;;;;;5067320;28;19962;-69
2021/10/16 12:57:21;;;;;;;0.30;0.30;;;13.90;87.10;;;;;;5068120;28;20101;-69